createdAt,value
2018-05-15T00:02:19.322Z,28.73
2018-05-15T00:04:47.702Z,26.07
2018-05-15T00:07:16.035Z,23.63
2018-05-15T00:09:44.809Z,27.83
2018-05-15T00:12:13.163Z,33.83
2018-05-15T00:14:41.527Z,26.97
2018-05-15T00:17:10.603Z,20.30
2018-05-15T00:19:38.954Z,26.23
2018-05-15T00:22:07.425Z,21.07
2018-05-15T00:24:35.802Z,27.03
2018-05-15T00:27:04.160Z,30.30
2018-05-15T00:29:32.573Z,22.17
2018-05-15T00:32:01.421Z,26.60
2018-05-15T00:34:29.912Z,31.87
2018-05-15T00:36:58.241Z,29.87
2018-05-15T00:39:26.896Z,30.13
2018-05-15T00:41:55.242Z,27.30
2018-05-15T00:44:24.708Z,17.93
2018-05-15T00:46:53.167Z,23.93
2018-05-15T00:49:21.507Z,28.17
2018-05-15T00:51:50.845Z,31.27
2018-05-15T00:54:19.600Z,21.70
2018-05-15T00:56:47.912Z,22.67
2018-05-15T00:59:16.284Z,23.27
2018-05-15T01:01:44.630Z,23.73
2018-05-15T01:04:13.041Z,23.87
2018-05-15T01:06:41.537Z,29.13
2018-05-15T01:09:10.104Z,26.70
2018-05-15T01:11:38.463Z,36.47
2018-05-15T01:14:06.853Z,28.13
2018-05-15T01:16:35.234Z,31.30
2018-05-15T01:19:03.941Z,27.47
2018-05-15T01:21:32.631Z,40.77
2018-05-15T01:24:01.083Z,35.03
2018-05-15T01:26:29.456Z,26.67
2018-05-15T01:28:57.895Z,41.50
2018-05-15T01:31:26.554Z,37.00
2018-05-15T01:33:54.895Z,26.27
2018-05-15T01:36:23.224Z,37.70
2018-05-15T01:38:51.956Z,35.80
2018-05-15T01:41:20.302Z,24.10
2018-05-15T01:43:48.646Z,34.60
2018-05-15T01:46:17.249Z,32.10
2018-05-15T01:48:45.611Z,27.30
2018-05-15T01:51:13.955Z,35.23
2018-05-15T01:53:42.364Z,25.07
2018-05-15T01:56:10.723Z,27.00
2018-05-15T01:58:39.052Z,26.10
2018-05-15T02:01:07.702Z,26.80
2018-05-15T02:03:36.098Z,27.30
2018-05-15T02:06:04.491Z,24.27
2018-05-15T02:08:32.851Z,35.30
2018-05-15T02:11:01.495Z,23.40
2018-05-15T02:13:29.898Z,30.00
2018-05-15T02:15:58.685Z,28.77
2018-05-15T02:18:27.005Z,23.53
2018-05-15T02:20:55.389Z,30.00
2018-05-15T02:23:24.210Z,26.23
2018-05-15T02:25:52.515Z,30.00
2018-05-15T02:28:20.820Z,36.43
2018-05-15T02:30:49.482Z,36.33
2018-05-15T02:33:17.793Z,28.00
2018-05-15T02:35:46.123Z,40.90
2018-05-15T02:38:14.486Z,33.17
2018-05-15T02:40:42.861Z,40.20
2018-05-15T02:43:11.199Z,34.70
2018-05-15T02:45:39.599Z,35.57
2018-05-15T02:48:07.932Z,30.87
2018-05-15T02:50:36.313Z,42.73
2018-05-15T02:53:04.772Z,34.13
2018-05-15T02:55:33.108Z,32.97
2018-05-15T02:58:01.666Z,29.73
2018-05-15T03:00:30.043Z,33.07
2018-05-15T03:02:58.596Z,36.97
2018-05-15T03:05:26.902Z,28.97
2018-05-15T03:07:55.266Z,33.83
2018-05-15T03:10:24.176Z,37.60
2018-05-15T03:12:52.521Z,38.47
2018-05-15T03:15:20.893Z,30.97
2018-05-15T03:17:49.225Z,30.57
2018-05-15T03:20:17.555Z,44.77
2018-05-15T03:22:46.216Z,28.43
2018-05-15T03:25:14.567Z,29.67
2018-05-15T03:27:42.901Z,26.17
2018-05-15T03:30:11.522Z,26.10
2018-05-15T03:32:40.070Z,31.27
2018-05-15T03:35:08.403Z,25.33
2018-05-15T03:37:36.960Z,25.13
2018-05-15T03:40:05.451Z,25.90
2018-05-15T03:42:33.892Z,26.07
2018-05-15T03:45:02.585Z,26.93
2018-05-15T03:47:30.957Z,27.63
2018-05-15T03:49:59.284Z,21.83
2018-05-15T03:52:27.655Z,22.27
2018-05-15T03:54:56.067Z,21.90
2018-05-15T03:57:24.392Z,28.03
2018-05-15T03:59:52.760Z,22.17
2018-05-15T04:02:33.034Z,22.43
2018-05-15T04:05:13.361Z,30.37
2018-05-15T04:10:46.878Z,29.50
2018-05-15T04:13:15.132Z,30.70
2018-05-15T04:15:43.491Z,23.93
2018-05-15T04:18:12.022Z,22.70
2018-05-15T04:20:40.387Z,20.03
2018-05-15T04:23:08.694Z,28.53
2018-05-15T04:25:38.086Z,24.43
2018-05-15T04:28:06.663Z,24.23
2018-05-15T04:30:35.012Z,27.07
2018-05-15T04:33:03.837Z,19.13
2018-05-15T04:35:32.247Z,38.97
2018-05-15T04:38:00.587Z,20.33
2018-05-15T04:40:28.949Z,22.83
2018-05-15T04:42:57.442Z,16.27
2018-05-15T04:45:25.814Z,32.47
2018-05-15T04:47:54.582Z,27.07
2018-05-15T04:50:23.025Z,42.50
2018-05-15T04:52:51.339Z,38.97
2018-05-15T04:55:19.690Z,24.93
2018-05-15T04:57:48.002Z,34.73
2018-05-15T05:00:16.307Z,39.57
2018-05-15T05:02:44.669Z,34.67
2018-05-15T05:05:12.995Z,20.93
2018-05-15T05:07:41.317Z,23.27
2018-05-15T05:10:09.670Z,24.53
2018-05-15T05:12:37.982Z,30.43
2018-05-15T05:15:06.361Z,27.63
2018-05-15T05:17:34.957Z,26.87
2018-05-15T05:20:03.409Z,28.40
2018-05-15T05:22:31.782Z,21.43
2018-05-15T05:25:00.210Z,20.80
2018-05-15T05:27:28.549Z,20.67
2018-05-15T05:29:57.041Z,29.40
2018-05-15T05:32:25.606Z,25.50
2018-05-15T05:34:53.967Z,20.40
2018-05-15T05:37:23.185Z,19.53
2018-05-15T05:39:51.708Z,20.57
2018-05-15T05:42:20.086Z,31.97
2018-05-15T05:44:48.403Z,18.10
2018-05-15T05:47:17.069Z,23.97
2018-05-15T05:49:45.387Z,18.97
2018-05-15T05:52:13.745Z,15.27
2018-05-15T05:54:42.454Z,20.17
2018-05-15T05:57:10.808Z,20.23
2018-05-15T05:59:39.151Z,22.43
2018-05-15T06:02:07.669Z,16.80
2018-05-15T06:04:39.713Z,25.07
2018-05-15T06:07:08.062Z,16.83
2018-05-15T06:09:36.489Z,19.53
2018-05-15T06:12:04.939Z,22.20
2018-05-15T06:14:33.293Z,20.30
2018-05-15T06:17:01.657Z,23.73
2018-05-15T06:19:30.034Z,25.93
2018-05-15T06:21:58.425Z,16.77
2018-05-15T06:24:26.765Z,20.40
2018-05-15T06:26:55.112Z,15.47
2018-05-15T06:29:23.445Z,18.50
2018-05-15T06:31:52.033Z,16.40
2018-05-15T06:34:20.354Z,17.70
2018-05-15T06:36:49.134Z,20.37
2018-05-15T06:39:17.599Z,21.23
2018-05-15T06:41:45.951Z,17.20
2018-05-15T06:44:14.510Z,25.33
2018-05-15T06:46:42.831Z,40.53
2018-05-15T06:49:11.168Z,15.30
2018-05-15T06:51:39.542Z,19.23
2018-05-15T06:54:07.865Z,14.63
2018-05-15T06:56:36.230Z,19.73
2018-05-15T06:59:04.768Z,21.50
2018-05-15T07:01:33.099Z,28.27
2018-05-15T07:04:01.472Z,20.07
2018-05-15T07:09:05.384Z,16.97
2018-05-15T07:11:33.909Z,13.77
2018-05-15T07:14:02.335Z,16.63
2018-05-15T07:16:30.621Z,19.77
2018-05-15T07:18:59.215Z,22.87
2018-05-15T07:21:27.555Z,32.60
2018-05-15T07:23:55.877Z,17.03
2018-05-15T07:26:24.441Z,14.90
2018-05-15T07:28:52.761Z,26.37
2018-05-15T07:31:21.100Z,24.97
2018-05-15T07:33:49.454Z,26.37
2018-05-15T07:36:17.820Z,14.33
2018-05-15T07:38:46.118Z,14.73
2018-05-15T07:41:14.704Z,17.63
2018-05-15T07:43:43.022Z,17.07
2018-05-15T07:46:11.381Z,20.83
2018-05-15T07:48:40.003Z,23.47
2018-05-15T07:51:08.451Z,19.77
2018-05-15T07:53:36.818Z,20.17
2018-05-15T07:56:05.349Z,31.63
2018-05-15T07:58:34.568Z,30.60
2018-05-15T08:01:02.918Z,19.90
2018-05-15T08:03:31.277Z,21.43
2018-05-15T08:05:59.640Z,16.93
2018-05-15T08:08:28.014Z,19.33
2018-05-15T08:10:56.534Z,15.63
2018-05-15T08:13:25.594Z,17.80
2018-05-15T08:15:53.927Z,17.70
2018-05-15T08:18:22.522Z,19.00
2018-05-15T08:20:50.857Z,20.87
2018-05-15T08:23:19.180Z,21.83
2018-05-15T08:25:47.809Z,19.13
2018-05-15T08:28:16.194Z,16.70
2018-05-15T08:30:44.575Z,22.90
2018-05-15T08:33:12.849Z,20.87
2018-05-15T08:35:41.271Z,13.50
2018-05-15T08:38:09.604Z,19.43
2018-05-15T08:40:38.168Z,31.93
2018-05-15T08:43:06.612Z,17.63
2018-05-15T08:45:34.977Z,14.80
2018-05-15T08:48:03.400Z,22.10
2018-05-15T08:50:31.805Z,14.77
2018-05-15T08:53:01.334Z,18.50
2018-05-15T08:55:29.702Z,22.00
2018-05-15T08:57:58.056Z,20.97
2018-05-15T09:00:26.409Z,16.80
2018-05-15T09:02:54.757Z,15.40
2018-05-15T09:05:23.091Z,19.70
2018-05-15T09:07:51.409Z,17.47
2018-05-15T09:10:19.970Z,17.93
2018-05-15T09:12:48.317Z,18.23
2018-05-15T09:15:16.639Z,23.43
2018-05-15T09:17:44.982Z,13.47
2018-05-15T09:20:13.347Z,17.03
2018-05-15T09:22:41.684Z,17.50
2018-05-15T09:25:10.022Z,18.23
2018-05-15T09:27:38.345Z,17.00
2018-05-15T09:30:06.671Z,37.23
2018-05-15T09:32:35.050Z,17.40
2018-05-15T09:35:03.346Z,17.20
2018-05-15T09:37:31.719Z,21.53
2018-05-15T09:40:00.154Z,23.03
2018-05-15T09:42:28.488Z,16.57
2018-05-15T09:44:56.894Z,16.00
2018-05-15T09:47:25.643Z,16.33
2018-05-15T09:49:54.015Z,19.67
2018-05-15T09:52:22.355Z,22.27
2018-05-15T09:54:50.669Z,19.53
2018-05-15T09:57:18.989Z,16.27
2018-05-15T09:59:47.305Z,33.43
2018-05-15T10:02:15.677Z,33.17
2018-05-15T10:04:44.033Z,13.90
2018-05-15T10:07:12.399Z,13.17
2018-05-15T10:09:40.746Z,20.13
2018-05-15T10:12:09.179Z,11.67
2018-05-15T10:14:37.555Z,17.57
2018-05-15T10:17:06.185Z,17.03
2018-05-15T10:19:34.545Z,12.03
2018-05-15T10:22:02.900Z,22.13
2018-05-15T10:24:31.265Z,18.60
2018-05-15T10:26:59.805Z,24.13
2018-05-15T10:29:28.179Z,19.43
2018-05-15T10:31:56.545Z,21.70
2018-05-15T10:34:24.845Z,17.83
2018-05-15T10:36:53.185Z,12.90
2018-05-15T10:39:21.905Z,17.60
2018-05-15T10:41:50.263Z,17.10
2018-05-15T10:44:18.564Z,20.43
2018-05-15T10:46:46.916Z,14.90
2018-05-15T10:49:16.150Z,21.23
2018-05-15T10:51:44.494Z,15.70
2018-05-15T10:54:12.894Z,16.77
2018-05-15T10:56:41.169Z,17.90
2018-05-15T10:59:09.558Z,15.50
2018-05-15T11:01:37.940Z,19.03
2018-05-15T11:04:06.291Z,15.13
2018-05-15T11:06:34.642Z,15.50
2018-05-15T11:09:03.018Z,15.23
2018-05-15T11:11:31.456Z,17.13
2018-05-15T11:13:59.872Z,11.90
2018-05-15T11:16:28.440Z,19.97
2018-05-15T11:18:56.769Z,16.70
2018-05-15T11:21:36.950Z,23.37
2018-05-15T11:27:10.171Z,20.97
2018-05-15T11:29:38.586Z,15.43
2018-05-15T11:32:06.949Z,15.87
2018-05-15T11:34:35.451Z,12.60
2018-05-15T11:37:03.781Z,10.33
2018-05-15T11:39:32.187Z,18.57
2018-05-15T11:42:00.740Z,18.50
2018-05-15T11:44:29.117Z,24.23
2018-05-15T11:46:57.434Z,18.17
2018-05-15T11:49:26.704Z,19.87
2018-05-15T11:51:55.183Z,13.73
2018-05-15T11:54:22.468Z,13.73
2018-05-15T11:56:50.852Z,11.13
2018-05-15T11:59:19.161Z,8.27
2018-05-15T12:01:47.464Z,15.20
2018-05-15T12:04:16.436Z,13.60
2018-05-15T12:06:44.732Z,13.43
2018-05-15T12:09:13.099Z,22.60
2018-05-15T12:11:41.480Z,30.20
2018-05-15T12:14:09.835Z,14.03
2018-05-15T12:16:38.158Z,9.47
2018-05-15T12:19:06.810Z,19.50
2018-05-15T12:21:35.122Z,15.87
2018-05-15T12:24:03.494Z,16.23
2018-05-15T12:26:31.879Z,17.57
2018-05-15T12:29:00.225Z,23.60
2018-05-15T12:31:29.351Z,26.93
2018-05-15T12:33:57.706Z,13.73
2018-05-15T12:36:26.023Z,22.83
2018-05-15T12:38:54.365Z,22.67
2018-05-15T12:41:22.832Z,21.43
2018-05-15T12:43:51.088Z,14.70
2018-05-15T12:46:19.396Z,21.03
2018-05-15T12:48:47.877Z,28.23
2018-05-15T12:51:16.110Z,18.80
2018-05-15T12:53:44.431Z,16.60
2018-05-15T12:56:12.976Z,15.37
2018-05-15T12:58:41.291Z,17.20
2018-05-15T13:01:09.676Z,19.60
2018-05-15T13:03:38.210Z,15.57
2018-05-15T13:06:06.553Z,16.90
2018-05-15T13:08:34.941Z,23.80
2018-05-15T13:11:03.709Z,18.57
2018-05-15T13:13:32.113Z,15.27
2018-05-15T13:16:00.548Z,18.40
2018-05-15T13:18:29.228Z,13.47
2018-05-15T13:20:57.519Z,19.67
2018-05-15T13:23:25.842Z,22.20
2018-05-15T13:25:55.821Z,23.97
2018-05-15T13:28:24.121Z,14.63
2018-05-15T13:30:52.471Z,16.07
2018-05-15T13:33:20.826Z,18.90
2018-05-15T13:35:49.149Z,14.67
2018-05-15T13:38:17.439Z,12.77
2018-05-15T13:40:45.786Z,20.63
2018-05-15T13:43:14.094Z,15.20
2018-05-15T13:45:42.439Z,19.10
2018-05-15T13:48:10.820Z,19.60
2018-05-15T13:50:39.231Z,13.33
2018-05-15T13:53:07.618Z,14.87
2018-05-15T13:55:36.009Z,14.90
2018-05-15T13:58:04.382Z,13.90
2018-05-15T14:00:32.798Z,20.87
2018-05-15T14:03:01.541Z,12.70
2018-05-15T14:05:29.887Z,14.77
2018-05-15T14:07:58.204Z,15.60
2018-05-15T14:10:26.795Z,19.40
2018-05-15T14:12:55.121Z,15.43
2018-05-15T14:15:23.435Z,14.90
2018-05-15T14:17:52.107Z,17.20
2018-05-15T14:20:20.418Z,10.87
2018-05-15T14:22:48.772Z,27.53
2018-05-15T14:25:17.148Z,12.80
2018-05-15T14:27:45.469Z,9.30
2018-05-15T14:30:13.811Z,13.63
2018-05-15T14:32:42.445Z,10.60
2018-05-15T14:35:10.878Z,10.03
2018-05-15T14:37:39.311Z,7.63
2018-05-15T14:40:07.741Z,9.30
2018-05-15T14:42:47.722Z,10.27
2018-05-15T14:45:16.268Z,13.43
2018-05-15T14:47:44.587Z,7.80
2018-05-15T14:50:12.909Z,16.77
2018-05-15T14:52:41.651Z,7.80
2018-05-15T14:55:10.049Z,14.60
2018-05-15T14:57:38.448Z,8.70
2018-05-15T15:00:06.842Z,9.93
2018-05-15T15:02:35.164Z,16.23
2018-05-15T15:05:03.508Z,14.97
2018-05-15T15:07:32.148Z,9.20
2018-05-15T15:10:00.528Z,12.53
2018-05-15T15:12:28.839Z,8.43
2018-05-15T15:14:57.516Z,8.73
2018-05-15T15:17:25.843Z,9.80
2018-05-15T15:19:54.143Z,11.47
2018-05-15T15:22:22.662Z,14.47
2018-05-15T15:24:50.987Z,17.63
2018-05-15T15:27:19.318Z,13.23
2018-05-15T15:29:47.690Z,16.67
2018-05-15T15:32:15.991Z,17.83
2018-05-15T15:34:44.328Z,8.97
2018-05-15T15:37:12.830Z,31.30
2018-05-15T15:39:41.216Z,11.33
2018-05-15T15:42:09.684Z,7.80
2018-05-15T15:44:38.015Z,9.90
2018-05-15T15:47:06.380Z,12.17
2018-05-15T15:49:34.697Z,5.37
2018-05-15T15:52:03.086Z,14.00
2018-05-15T15:54:31.576Z,12.70
2018-05-15T15:57:00.084Z,8.60
2018-05-15T15:59:28.703Z,11.73
2018-05-15T16:01:57.012Z,9.73
2018-05-15T16:04:25.327Z,11.40
2018-05-15T16:06:53.681Z,12.73
2018-05-15T16:09:22.005Z,18.63
2018-05-15T16:11:50.337Z,9.30
2018-05-15T16:14:18.899Z,17.47
2018-05-15T16:16:47.270Z,9.87
2018-05-15T16:19:15.764Z,9.93
2018-05-15T16:21:45.102Z,11.60
2018-05-15T16:24:13.572Z,18.00
2018-05-15T16:26:42.104Z,13.00
2018-05-15T16:29:10.729Z,10.07
2018-05-15T16:31:39.067Z,10.97
2018-05-15T16:34:07.569Z,21.20
2018-05-15T16:36:35.994Z,11.37
2018-05-15T16:39:04.865Z,14.63
2018-05-15T16:41:33.204Z,8.73
2018-05-15T16:44:01.818Z,8.57
2018-05-15T16:46:30.164Z,11.40
2018-05-15T16:48:58.538Z,12.77
2018-05-15T16:51:27.241Z,6.90
2018-05-15T16:53:55.559Z,10.50
2018-05-15T16:56:23.915Z,14.57
2018-05-15T16:58:52.563Z,8.50
2018-05-15T17:01:20.813Z,10.93
2018-05-15T17:03:49.192Z,11.70
2018-05-15T17:06:18.007Z,12.47
2018-05-15T17:08:46.418Z,14.57
2018-05-15T17:11:14.787Z,11.77
2018-05-15T17:13:43.189Z,13.60
2018-05-15T17:16:11.597Z,9.70
2018-05-15T17:18:42.306Z,9.93
2018-05-15T17:21:10.766Z,8.53
2018-05-15T17:23:39.146Z,9.00
2018-05-15T17:26:07.528Z,14.27
2018-05-15T17:28:36.281Z,7.47
2018-05-15T17:31:04.814Z,35.27
2018-05-15T17:33:33.341Z,20.60
2018-05-15T17:36:02.128Z,12.53
2018-05-15T17:38:30.605Z,13.83
2018-05-15T17:40:59.027Z,5.67
2018-05-15T17:43:27.812Z,9.00
2018-05-15T17:45:56.133Z,7.37
2018-05-15T17:48:24.454Z,11.60
2018-05-15T17:50:52.804Z,11.10
2018-05-15T17:53:21.103Z,13.63
2018-05-15T17:55:49.444Z,10.13
2018-05-15T17:58:17.783Z,8.93
2018-05-15T18:00:46.113Z,10.47
2018-05-15T18:03:14.499Z,19.33
2018-05-15T18:05:42.846Z,16.47
2018-05-15T18:08:11.150Z,12.90
2018-05-15T18:10:39.546Z,11.03
2018-05-15T18:13:08.158Z,11.10
2018-05-15T18:15:36.799Z,9.93
2018-05-15T18:18:05.282Z,20.30
2018-05-15T18:20:34.069Z,15.77
2018-05-15T18:23:02.405Z,19.63
2018-05-15T18:25:30.966Z,10.70
2018-05-15T18:27:59.977Z,15.50
2018-05-15T18:30:28.336Z,10.97
2018-05-15T18:32:56.781Z,19.03
2018-05-15T18:35:24.982Z,13.27
2018-05-15T18:37:53.362Z,18.10
2018-05-15T18:40:21.694Z,10.97
2018-05-15T18:42:50.065Z,14.23
2018-05-15T18:45:18.416Z,20.67
2018-05-15T18:47:46.748Z,11.40
2018-05-15T18:50:15.428Z,15.67
2018-05-15T18:52:43.908Z,11.20
2018-05-15T18:55:12.253Z,9.63
2018-05-15T18:57:40.723Z,24.97
2018-05-15T19:00:09.077Z,12.87
2018-05-15T19:02:37.616Z,11.13
2018-05-15T19:05:06.134Z,14.53
2018-05-15T19:07:34.613Z,19.37
2018-05-15T19:10:03.011Z,9.50
2018-05-15T19:12:31.474Z,28.53
2018-05-15T19:14:59.881Z,10.53
2018-05-15T19:17:28.561Z,10.70
2018-05-15T19:19:57.154Z,13.03
2018-05-15T19:22:25.525Z,15.83
2018-05-15T19:24:53.875Z,10.90
2018-05-15T19:27:22.432Z,11.83
2018-05-15T19:29:50.773Z,6.37
2018-05-15T19:32:19.090Z,13.03
2018-05-15T19:34:53.228Z,11.40
2018-05-15T19:37:21.638Z,13.30
2018-05-15T19:39:49.984Z,11.80
2018-05-15T19:42:18.340Z,7.50
2018-05-15T19:44:46.646Z,21.03
2018-05-15T19:47:14.945Z,8.87
2018-05-15T19:49:43.299Z,10.57
2018-05-15T19:52:11.619Z,5.27
2018-05-15T19:54:39.943Z,14.80
2018-05-15T19:57:08.327Z,14.67
2018-05-15T19:59:36.885Z,6.77
2018-05-15T20:02:05.218Z,5.40
2018-05-15T20:04:33.995Z,14.73
2018-05-15T20:07:02.432Z,12.00
2018-05-15T20:09:30.948Z,12.03
2018-05-15T20:11:59.532Z,6.77
2018-05-15T20:14:27.912Z,7.60
2018-05-15T20:16:56.285Z,8.03
2018-05-15T20:19:24.906Z,11.77
2018-05-15T20:21:53.233Z,8.10
2018-05-15T20:24:21.943Z,15.53
2018-05-15T20:26:50.324Z,14.37
2018-05-15T20:29:18.744Z,5.30
2018-05-15T20:31:47.685Z,13.73
2018-05-15T20:34:16.049Z,7.73
2018-05-15T20:36:44.421Z,5.63
2018-05-15T20:39:12.764Z,13.63
2018-05-15T20:41:41.181Z,11.37
2018-05-15T20:44:09.501Z,9.53
2018-05-15T20:46:38.262Z,11.80
2018-05-15T20:49:06.862Z,12.43
2018-05-15T20:51:35.386Z,22.27
2018-05-15T20:54:03.831Z,6.67
2018-05-15T20:56:32.790Z,6.60
2018-05-15T20:59:01.229Z,9.50
2018-05-15T21:01:30.546Z,6.50
2018-05-15T21:03:58.972Z,11.73
2018-05-15T21:06:27.404Z,15.67
2018-05-15T21:08:55.743Z,11.70
2018-05-15T21:11:24.129Z,11.20
2018-05-15T21:13:52.503Z,7.80
2018-05-15T21:16:20.882Z,21.27
2018-05-15T21:18:49.301Z,17.00
2018-05-15T21:21:17.716Z,12.73
2018-05-15T21:23:46.139Z,12.17
2018-05-15T21:26:14.985Z,10.63
2018-05-15T21:28:43.414Z,8.73
2018-05-15T21:31:11.741Z,20.83
2018-05-15T21:33:40.215Z,24.43
2018-05-15T21:36:08.594Z,18.77
2018-05-15T21:38:37.114Z,28.57
2018-05-15T21:41:05.465Z,11.90
2018-05-15T21:43:34.917Z,12.23
2018-05-15T21:46:03.370Z,10.97
2018-05-15T21:48:32.246Z,12.70
2018-05-15T21:51:00.669Z,9.63
2018-05-15T21:53:29.104Z,10.60
2018-05-15T21:55:57.499Z,17.80
2018-05-15T21:58:25.829Z,7.50
2018-05-15T22:00:54.226Z,17.80
2018-05-15T22:03:22.711Z,13.10
2018-05-15T22:05:51.027Z,7.60
2018-05-15T22:08:19.502Z,7.90
2018-05-15T22:10:48.190Z,8.70
2018-05-15T22:13:28.557Z,10.60
2018-05-15T22:16:08.999Z,12.40
2018-05-15T22:18:49.233Z,35.97
2018-05-15T22:21:29.412Z,11.50
2018-05-15T22:23:57.208Z,18.17
2018-05-15T22:26:25.532Z,8.37
2018-05-15T22:28:53.853Z,12.30
2018-05-15T22:31:22.326Z,14.27
2018-05-15T22:33:50.699Z,16.13
2018-05-15T22:36:19.043Z,22.47
2018-05-15T22:38:47.401Z,11.53
2018-05-15T22:41:15.733Z,13.70
2018-05-15T22:43:44.734Z,15.53
2018-05-15T22:46:13.381Z,7.20
2018-05-15T22:48:41.730Z,11.20
2018-05-15T22:51:10.464Z,8.97
2018-05-15T22:53:38.879Z,15.43
2018-05-15T22:56:07.281Z,15.17
2018-05-15T22:58:35.921Z,14.90
2018-05-15T23:01:04.262Z,16.43
2018-05-15T23:03:32.787Z,10.63
2018-05-15T23:06:01.200Z,9.23
2018-05-15T23:08:29.640Z,18.20
2018-05-15T23:10:57.963Z,11.33
2018-05-15T23:13:26.904Z,23.93
2018-05-15T23:15:55.201Z,11.60
2018-05-15T23:18:23.559Z,18.20
2018-05-15T23:20:52.743Z,14.23
2018-05-15T23:23:21.040Z,13.50
2018-05-15T23:25:49.401Z,23.63
2018-05-15T23:28:17.789Z,12.77
2018-05-15T23:30:46.122Z,20.13
2018-05-15T23:33:14.569Z,11.07
2018-05-15T23:35:44.570Z,11.30
2018-05-15T23:38:12.997Z,12.63
2018-05-15T23:40:41.324Z,15.77
2018-05-15T23:43:11.124Z,12.60
2018-05-15T23:45:39.499Z,22.73
2018-05-15T23:48:07.797Z,17.33
2018-05-15T23:50:36.794Z,13.40
2018-05-15T23:53:05.148Z,15.70
2018-05-15T23:55:33.573Z,16.50
2018-05-15T23:58:02.213Z,19.33
